UAL2272 KSFO-KMSP
Flight info
| Callsign | UAL2272 |
|---|---|
| Flight time | N/A |
| Altitude | 37000 |
| Route | TRUKN2 ORRCA Q120 UFFDA TORGY4 |
| Aircraft | A319/M-SDE3FGHIRWY/LB1 |
Departure
| Time | 2026-05-05 16:57 |
|---|---|
| Airport | San Francisco International Airport (KSFO) |
Arrival
| Time | N/A |
|---|---|
| Airport | Minneapolis–Saint Paul International Airport / Wold–Chamberlain Field (KMSP) |
| Time | Latitude | Longitude | Altitude | Speed | Heading |
|---|---|---|---|---|---|
| 2026-05-05 16:10 | 37.61644 | -122.38079 | 31 ft | 0 kts | 345° |
| 2026-05-05 16:48 | 37.61631 | -122.38075 | 32 ft | 2 kts | 345° |
| 2026-05-05 16:48 | 37.61616 | -122.38071 | 32 ft | 2 kts | 8° |
| 2026-05-05 16:49 | 37.61602 | -122.38077 | 32 ft | 2 kts | 40° |
| 2026-05-05 16:49 | 37.61593 | -122.38093 | 32 ft | 2 kts | 72° |
| 2026-05-05 16:49 | 37.61591 | -122.38112 | 32 ft | 2 kts | 104° |
| 2026-05-05 16:49 | 37.61594 | -122.38120 | 32 ft | 1 kts | 123° |
| 2026-05-05 16:50 | 37.61597 | -122.38126 | 32 ft | 0 kts | 118° |
| 2026-05-05 16:52 | 37.61590 | -122.38111 | 31 ft | 8 kts | 117° |
| 2026-05-05 16:52 | 37.61578 | -122.38030 | 32 ft | 10 kts | 63° |
| 2026-05-05 16:52 | 37.61651 | -122.37969 | 31 ft | 14 kts | 32° |
| 2026-05-05 16:53 | 37.61672 | -122.37844 | 28 ft | 17 kts | 98° |
| 2026-05-05 16:53 | 37.61656 | -122.37681 | 25 ft | 19 kts | 97° |
| 2026-05-05 16:53 | 37.61637 | -122.37492 | 18 ft | 23 kts | 98° |
| 2026-05-05 16:53 | 37.61615 | -122.37287 | 15 ft | 23 kts | 99° |
| 2026-05-05 16:54 | 37.61546 | -122.37100 | 12 ft | 24 kts | 117° |
| 2026-05-05 16:54 | 37.61462 | -122.36918 | 12 ft | 23 kts | 128° |
| 2026-05-05 16:54 | 37.61357 | -122.36762 | 12 ft | 23 kts | 122° |
| 2026-05-05 16:54 | 37.61283 | -122.36582 | 12 ft | 23 kts | 118° |
| 2026-05-05 16:55 | 37.61206 | -122.36401 | 9 ft | 24 kts | 119° |
| 2026-05-05 16:55 | 37.61128 | -122.36214 | 8 ft | 22 kts | 118° |
| 2026-05-05 16:55 | 37.61066 | -122.36064 | 8 ft | 18 kts | 117° |
| 2026-05-05 16:55 | 37.61077 | -122.35919 | 9 ft | 18 kts | 40° |
| 2026-05-05 16:56 | 37.61185 | -122.35886 | 8 ft | 16 kts | 327° |
| 2026-05-05 16:56 | 37.61267 | -122.36065 | 8 ft | 46 kts | 297° |
| 2026-05-05 16:56 | 37.61527 | -122.36686 | 12 ft | 112 kts | 298° |
| 2026-05-05 16:56 | 37.61978 | -122.37758 | 98 ft | 156 kts | 297° |
| 2026-05-05 16:57 | 37.62491 | -122.38978 | 697 ft | 158 kts | 297° |
| 2026-05-05 16:57 | 37.63212 | -122.39968 | 1348 ft | 160 kts | 337° |
| 2026-05-05 16:57 | 37.64299 | -122.40015 | 1916 ft | 167 kts | 21° |
| 2026-05-05 16:57 | 37.65134 | -122.38945 | 2285 ft | 185 kts | 63° |
| 2026-05-05 16:58 | 37.65623 | -122.37363 | 2664 ft | 201 kts | 68° |
| 2026-05-05 16:58 | 37.66137 | -122.35641 | 3014 ft | 221 kts | 66° |
| 2026-05-05 16:58 | 37.66761 | -122.33809 | 3449 ft | 239 kts | 63° |
| 2026-05-05 16:58 | 37.67507 | -122.31841 | 3928 ft | 256 kts | 62° |
| 2026-05-05 16:59 | 37.68323 | -122.29799 | 4623 ft | 265 kts | 60° |
| 2026-05-05 16:59 | 37.69164 | -122.27739 | 5526 ft | 265 kts | 60° |
| 2026-05-05 16:59 | 37.70003 | -122.25695 | 6420 ft | 266 kts | 60° |
| 2026-05-05 16:59 | 37.70847 | -122.23646 | 7296 ft | 267 kts | 59° |
| 2026-05-05 17:00 | 37.71851 | -122.21702 | 8139 ft | 266 kts | 46° |
| 2026-05-05 17:00 | 37.73178 | -122.20139 | 9007 ft | 263 kts | 35° |
| 2026-05-05 17:00 | 37.74639 | -122.18800 | 9825 ft | 263 kts | 33° |
| 2026-05-05 17:00 | 37.76134 | -122.17465 | 10559 ft | 267 kts | 33° |
| 2026-05-05 17:01 | 37.77696 | -122.16073 | 10941 ft | 283 kts | 33° |
| 2026-05-05 17:01 | 37.79367 | -122.14577 | 11255 ft | 301 kts | 34° |
| 2026-05-05 17:01 | 37.81113 | -122.13004 | 11553 ft | 318 kts | 34° |
| 2026-05-05 17:01 | 37.82954 | -122.11342 | 11837 ft | 334 kts | 34° |
| 2026-05-05 17:02 | 37.84877 | -122.09602 | 12276 ft | 344 kts | 34° |
| 2026-05-05 17:02 | 37.86828 | -122.07833 | 12941 ft | 347 kts | 34° |
| 2026-05-05 17:02 | 37.88801 | -122.06043 | 13644 ft | 348 kts | 34° |
| 2026-05-05 17:02 | 37.90747 | -122.04278 | 14251 ft | 351 kts | 34° |
| 2026-05-05 17:03 | 37.92750 | -122.02459 | 14853 ft | 354 kts | 35° |
| 2026-05-05 17:03 | 37.94748 | -122.00643 | 15437 ft | 357 kts | 34° |
| 2026-05-05 17:03 | 37.96784 | -121.98792 | 16004 ft | 360 kts | 34° |
| 2026-05-05 17:03 | 37.98813 | -121.96946 | 16536 ft | 363 kts | 34° |
| 2026-05-05 17:04 | 38.00867 | -121.95077 | 17044 ft | 367 kts | 35° |
| 2026-05-05 17:04 | 38.02950 | -121.93179 | 17560 ft | 370 kts | 35° |
| 2026-05-05 17:04 | 38.05051 | -121.91262 | 18080 ft | 373 kts | 35° |
| 2026-05-05 17:04 | 38.07177 | -121.89323 | 18608 ft | 375 kts | 35° |
| 2026-05-05 17:05 | 38.09300 | -121.87384 | 19094 ft | 378 kts | 35° |